createdAt,value
2024-04-18T00:01:38.041Z,-2.5
2024-04-18T00:03:38.737Z,-2.3
2024-04-18T00:06:39.634Z,-2.1
2024-04-18T00:11:41.062Z,-2.1
2024-04-18T00:13:48.125Z,-2.0
2024-04-18T00:18:48.769Z,-2.1
2024-04-18T00:21:49.424Z,-2.1
2024-04-18T00:23:50.127Z,-2.2
2024-04-18T00:26:50.674Z,-2.3
2024-04-18T00:28:51.257Z,-2.4
2024-04-18T00:31:51.818Z,-2.4
2024-04-18T00:33:52.596Z,-2.5
2024-04-18T00:36:53.291Z,-2.5
2024-04-18T00:39:53.882Z,-2.6
2024-04-18T00:41:54.518Z,-2.7
2024-04-18T00:46:55.111Z,-2.8
2024-04-18T00:49:55.645Z,-2.8
2024-04-18T00:51:56.226Z,-2.9
2024-04-18T00:54:56.776Z,-2.9
2024-04-18T00:59:57.315Z,-3.1
2024-04-18T01:01:57.832Z,-3.1
2024-04-18T01:04:58.442Z,-3.1
2024-04-18T01:07:59.196Z,-3.2
2024-04-18T01:09:59.735Z,-3.2
2024-04-18T01:13:00.425Z,-3.3
2024-04-18T01:15:00.977Z,-3.3
2024-04-18T01:18:01.566Z,-3.2
2024-04-18T01:20:02.437Z,-3.0
2024-04-18T01:23:03.031Z,-2.9
2024-04-18T01:25:03.696Z,-2.8
2024-04-18T01:28:04.343Z,-2.6
2024-04-18T01:30:04.917Z,-2.5
2024-04-18T01:33:05.515Z,-2.4
2024-04-18T01:35:06.284Z,-2.4
2024-04-18T01:40:06.832Z,-2.4
2024-04-18T01:43:07.467Z,-2.4
2024-04-18T01:45:08.039Z,-2.4
2024-04-18T01:48:08.681Z,-2.3
2024-04-18T01:50:09.602Z,-2.3
2024-04-18T01:53:10.222Z,-2.3
2024-04-18T01:55:10.760Z,-2.3
2024-04-18T01:58:11.303Z,-2.2
2024-04-18T02:01:11.905Z,-2.2
2024-04-18T02:03:12.841Z,-2.2
2024-04-18T02:06:13.942Z,-2.3
2024-04-18T02:08:14.729Z,-2.3
2024-04-18T02:11:15.376Z,-2.4
2024-04-18T02:13:15.987Z,-2.5
2024-04-18T02:16:16.789Z,-2.6
2024-04-18T02:21:17.419Z,-2.7
2024-04-18T02:23:18.027Z,-2.7
2024-04-18T02:26:18.568Z,-2.8
2024-04-18T02:28:19.186Z,-2.7
2024-04-18T02:31:19.754Z,-2.7
2024-04-18T02:33:20.320Z,-2.6
2024-04-18T02:36:21.050Z,-2.5
2024-04-18T02:39:21.844Z,-2.5
2024-04-18T02:41:22.515Z,-2.5
2024-04-18T02:44:23.063Z,-2.4
2024-04-18T02:46:23.628Z,-2.4
2024-04-18T02:49:24.198Z,-2.3
2024-04-18T02:51:24.763Z,-2.2
2024-04-18T02:54:25.457Z,-2.1
2024-04-18T02:56:26.195Z,-2.1
2024-04-18T03:01:26.844Z,-2.1
2024-04-18T03:04:27.597Z,-2.1
2024-04-18T03:06:28.288Z,-2.1
2024-04-18T03:09:28.960Z,-2.1
2024-04-18T03:12:29.738Z,-2.1
2024-04-18T03:14:30.476Z,-2.0
2024-04-18T03:17:31.062Z,-2.0
2024-04-18T03:19:31.819Z,-1.9
2024-04-18T03:22:32.416Z,-1.9
2024-04-18T03:24:33.091Z,-1.9
2024-04-18T03:27:33.763Z,-1.9
2024-04-18T03:29:34.415Z,-1.9
2024-04-18T03:32:35.004Z,-1.8
2024-04-18T03:34:35.796Z,-1.7
2024-04-18T03:37:37.924Z,-1.7
2024-04-18T03:42:39.410Z,-1.7
2024-04-18T03:44:40.268Z,-1.7
2024-04-18T03:47:40.957Z,-1.7
2024-04-18T03:49:41.730Z,-1.7
2024-04-18T03:52:42.297Z,-1.7
2024-04-18T03:54:51.436Z,-1.7
2024-04-18T03:58:03.622Z,-1.7
2024-04-18T04:00:04.185Z,-1.6
2024-04-18T04:03:04.722Z,-1.6
2024-04-18T04:05:05.333Z,-1.7
2024-04-18T04:08:05.918Z,-1.7
2024-04-18T04:10:06.489Z,-1.7
2024-04-18T04:13:07.039Z,-1.7
2024-04-18T04:15:07.617Z,-1.7
2024-04-18T04:18:08.359Z,-1.7
2024-04-18T04:23:09.196Z,-1.7
2024-04-18T04:25:09.765Z,-1.7
2024-04-18T04:28:10.321Z,-1.7
2024-04-18T04:31:10.849Z,-1.7
2024-04-18T04:33:11.430Z,-1.8
2024-04-18T04:36:12.092Z,-1.7
2024-04-18T04:38:12.641Z,-1.8
2024-04-18T04:41:13.190Z,-1.7
2024-04-18T04:43:13.808Z,-1.7
2024-04-18T04:46:14.322Z,-1.7
2024-04-18T04:48:14.976Z,-1.7
2024-04-18T04:51:16.327Z,-1.7
2024-04-18T04:53:17.049Z,-1.6
2024-04-18T04:56:17.615Z,-1.7
2024-04-18T04:58:18.239Z,-1.5
2024-04-18T05:03:18.867Z,-1.5
2024-04-18T05:06:19.675Z,-1.4
2024-04-18T05:08:20.331Z,-1.5
2024-04-18T05:11:20.933Z,-1.4
2024-04-18T05:14:21.826Z,-1.3
2024-04-18T05:16:25.219Z,-1.3
2024-04-18T05:19:27.170Z,-1.3
2024-04-18T05:21:27.739Z,-1.3
2024-04-18T05:24:28.449Z,-1.2
2024-04-18T05:26:29.107Z,-1.2
2024-04-18T05:29:29.686Z,-1.1
2024-04-18T05:31:30.342Z,-1.0
2024-04-18T05:34:30.870Z,-1.0
2024-04-18T05:36:31.705Z,-1.0
2024-04-18T05:39:32.385Z,-1.0
2024-04-18T05:44:33.045Z,-0.9
2024-04-18T05:47:33.953Z,-0.8
2024-04-18T05:49:34.904Z,-0.8
2024-04-18T05:52:35.460Z,-0.7
2024-04-18T05:54:36.038Z,-0.5
2024-04-18T05:56:36.700Z,-0.5
2024-04-18T05:59:37.262Z,-0.5
2024-04-18T06:02:37.844Z,-0.5
2024-04-18T06:04:38.502Z,-0.4
2024-04-18T06:07:40.202Z,-0.2
2024-04-18T06:09:46.885Z,-0.3
2024-04-18T06:12:47.742Z,-0.4
2024-04-18T06:14:48.602Z,-0.3
2024-04-18T06:17:49.156Z,-0.3
2024-04-18T06:19:49.857Z,-0.3
2024-04-18T06:24:50.468Z,-0.1
2024-04-18T06:27:51.167Z,-0.1
2024-04-18T06:29:52.005Z,-0.1
2024-04-18T06:32:52.610Z,0.0
2024-04-18T06:34:53.302Z,0.1
2024-04-18T06:37:53.908Z,0.2
2024-04-18T06:40:54.505Z,0.2
2024-04-18T06:42:55.119Z,0.2
2024-04-18T06:45:55.822Z,0.2
2024-04-18T06:47:56.830Z,0.1
2024-04-18T06:50:58.362Z,0.2
2024-04-18T06:52:58.940Z,0.3
2024-04-18T06:55:59.462Z,0.3
2024-04-18T06:58:00.347Z,0.4
2024-04-18T07:01:01.253Z,0.4
2024-04-18T07:06:02.227Z,0.7
2024-04-18T07:08:02.836Z,0.6
2024-04-18T07:11:03.399Z,0.8
2024-04-18T07:13:04.275Z,0.8
2024-04-18T07:16:04.858Z,0.9
2024-04-18T07:18:05.513Z,0.9
2024-04-18T07:21:06.327Z,0.9
2024-04-18T07:23:06.999Z,1.0
2024-04-18T07:26:07.631Z,0.9
2024-04-18T07:29:08.165Z,0.9
2024-04-18T07:31:08.673Z,0.9
2024-04-18T07:34:09.242Z,0.9
2024-04-18T07:36:09.949Z,1.0
2024-04-18T07:39:10.509Z,1.0
2024-04-18T07:41:11.117Z,1.1
2024-04-18T07:46:11.712Z,0.9
2024-04-18T07:49:12.319Z,0.9
2024-04-18T07:51:13.339Z,1.0
2024-04-18T07:54:13.953Z,0.9
2024-04-18T07:56:15.078Z,0.9
2024-04-18T07:59:18.000Z,0.9
2024-04-18T08:01:22.221Z,0.9
2024-04-18T08:04:35.124Z,0.9
2024-04-18T08:09:04.614Z,0.8
2024-04-18T08:14:33.244Z,0.7
2024-04-18T08:16:46.475Z,0.7
2024-04-18T08:19:47.377Z,0.7
2024-04-18T08:21:47.980Z,0.7
2024-04-18T08:26:48.542Z,0.7
2024-04-18T08:29:49.132Z,0.9
2024-04-18T08:31:49.743Z,1.0
2024-04-18T08:34:50.431Z,1.0
2024-04-18T08:37:51.098Z,1.1
2024-04-18T08:39:51.672Z,1.2
2024-04-18T08:42:52.293Z,1.2
2024-04-18T08:44:52.906Z,1.2
2024-04-18T08:47:53.610Z,1.1
2024-04-18T08:49:54.484Z,1.1
2024-04-18T08:52:55.096Z,1.1
2024-04-18T08:54:55.647Z,1.2
2024-04-18T08:57:56.226Z,1.3
2024-04-18T08:59:56.783Z,1.5
2024-04-18T09:02:57.361Z,1.8
2024-04-18T09:07:57.986Z,1.6
2024-04-18T09:09:58.536Z,1.8
2024-04-18T09:13:01.715Z,2.0
2024-04-18T09:15:08.048Z,1.7
2024-04-18T09:18:08.798Z,1.9
2024-04-18T09:20:10.077Z,2.1
2024-04-18T09:23:10.667Z,1.9
2024-04-18T09:25:11.235Z,2.1
2024-04-18T09:28:11.823Z,2.1
2024-04-18T09:31:12.547Z,1.8
2024-04-18T09:33:19.592Z,1.6
2024-04-18T09:35:20.794Z,1.9
2024-04-18T09:38:21.592Z,2.0
2024-04-18T09:40:22.120Z,2.0
2024-04-18T09:48:22.732Z,2.2
2024-04-18T09:51:23.807Z,2.1
2024-04-18T09:53:24.604Z,2.7
2024-04-18T09:56:25.234Z,2.7
2024-04-18T09:58:25.783Z,2.7
2024-04-18T10:01:26.332Z,2.7
2024-04-18T10:03:27.010Z,3.0
2024-04-18T10:06:27.812Z,3.1
2024-04-18T10:08:28.763Z,3.5
2024-04-18T10:11:29.384Z,3.5
2024-04-18T10:13:30.100Z,3.1
2024-04-18T10:16:30.668Z,3.4
2024-04-18T10:19:31.214Z,3.6
2024-04-18T10:21:33.668Z,3.9
2024-04-18T10:24:17.569Z,4.2
2024-04-18T10:29:18.359Z,4.2
2024-04-18T10:34:18.908Z,3.9
2024-04-18T10:36:19.493Z,4.2
2024-04-18T10:39:20.198Z,4.4
2024-04-18T10:41:20.846Z,4.8
2024-04-18T10:44:21.434Z,4.9
2024-04-18T10:47:22.194Z,4.9
2024-04-18T10:49:23.096Z,4.9
2024-04-18T10:52:24.111Z,5.2
2024-04-18T10:54:24.701Z,5.4
2024-04-18T10:57:25.672Z,5.3
2024-04-18T10:59:26.326Z,5.4
2024-04-18T11:02:28.166Z,5.6
2024-04-18T11:04:34.242Z,5.6
2024-04-18T11:09:35.102Z,6.1
2024-04-18T11:12:36.039Z,6.4
2024-04-18T11:14:37.014Z,6.4
2024-04-18T11:17:37.926Z,6.6
2024-04-18T11:19:38.727Z,6.3
2024-04-18T11:22:39.390Z,6.3
2024-04-18T11:24:40.000Z,5.9
2024-04-18T11:27:40.707Z,5.7
2024-04-18T11:29:41.377Z,5.5
2024-04-18T11:32:41.974Z,5.2
2024-04-18T11:34:42.709Z,5.3
2024-04-18T11:37:43.337Z,5.3
2024-04-18T11:40:43.884Z,5.3
2024-04-18T11:42:44.549Z,5.4
2024-04-18T11:45:45.273Z,5.7
2024-04-18T11:50:45.926Z,6.4
2024-04-18T11:52:46.750Z,6.6
2024-04-18T11:55:47.297Z,7.1
2024-04-18T11:57:47.866Z,7.5
2024-04-18T12:00:48.438Z,7.7
2024-04-18T12:02:49.042Z,8.0
2024-04-18T12:05:49.760Z,8.2
2024-04-18T12:07:50.410Z,8.3
2024-04-18T12:10:51.026Z,8.2
2024-04-18T12:12:51.652Z,8.0
2024-04-18T12:15:52.354Z,8.2
2024-04-18T12:18:53.252Z,8.4
2024-04-18T12:20:53.775Z,8.5
2024-04-18T12:23:54.351Z,8.9
2024-04-18T12:25:54.910Z,9.1
2024-04-18T12:30:55.536Z,8.9
2024-04-18T12:33:56.180Z,8.8
2024-04-18T12:35:56.886Z,8.3
2024-04-18T12:38:57.454Z,8.2
2024-04-18T12:43:58.051Z,7.3
2024-04-18T12:46:05.795Z,6.8
2024-04-18T12:49:24.472Z,6.3
2024-04-18T12:51:25.784Z,5.9
2024-04-18T12:54:26.687Z,5.9
2024-04-18T12:56:27.523Z,6.2
2024-04-18T12:59:28.164Z,6.4
2024-04-18T13:01:28.762Z,6.8
2024-04-18T13:04:29.591Z,7.3
2024-04-18T13:06:30.394Z,7.9
2024-04-18T13:11:31.082Z,8.3
2024-04-18T13:14:31.623Z,8.5
2024-04-18T13:16:32.566Z,8.7
2024-04-18T13:19:33.236Z,8.2
2024-04-18T13:21:33.936Z,7.3
2024-04-18T13:24:34.856Z,7.2
2024-04-18T13:26:35.551Z,6.6
2024-04-18T13:29:36.093Z,6.2
2024-04-18T13:32:36.790Z,6.0
2024-04-18T13:34:37.703Z,5.8
2024-04-18T13:37:38.627Z,5.8
2024-04-18T13:39:39.225Z,6.1
2024-04-18T13:42:40.043Z,6.4
2024-04-18T13:44:40.689Z,7.1
2024-04-18T13:47:41.430Z,7.8
2024-04-18T13:52:42.258Z,7.3
2024-04-18T13:54:42.847Z,6.9
2024-04-18T13:57:43.538Z,6.4
2024-04-18T13:59:44.208Z,6.4
2024-04-18T14:02:44.795Z,6.4
2024-04-18T14:04:45.493Z,5.7
2024-04-18T14:07:46.325Z,4.0
2024-04-18T14:09:46.976Z,1.8
2024-04-18T14:12:47.676Z,0.7
2024-04-18T14:15:48.270Z,0.2
2024-04-18T14:17:48.937Z,-0.1
2024-04-18T14:20:49.570Z,0.1
2024-04-18T14:22:50.182Z,0.3
2024-04-18T14:25:50.747Z,0.7
2024-04-18T14:27:51.341Z,0.7
2024-04-18T14:32:51.973Z,1.1
2024-04-18T14:35:52.732Z,1.2
2024-04-18T14:37:54.287Z,0.9
2024-04-18T14:41:05.519Z,0.8
2024-04-18T14:43:13.326Z,0.7
2024-04-18T14:46:13.928Z,0.9
2024-04-18T14:48:14.572Z,1.0
2024-04-18T14:51:15.211Z,1.2
2024-04-18T14:53:15.849Z,1.5
2024-04-18T14:56:16.417Z,1.4
2024-04-18T14:58:17.159Z,1.7
2024-04-18T15:01:17.824Z,1.9
2024-04-18T15:03:18.599Z,2.5
2024-04-18T15:06:19.802Z,2.5
2024-04-18T15:08:20.518Z,2.4
2024-04-18T15:13:21.097Z,2.9
2024-04-18T15:16:21.651Z,3.0
2024-04-18T15:19:22.213Z,3.1
2024-04-18T15:21:22.790Z,3.2
2024-04-18T15:24:23.751Z,3.4
2024-04-18T15:26:24.749Z,3.5
2024-04-18T15:29:25.287Z,3.8
2024-04-18T15:31:25.882Z,4.2
2024-04-18T15:34:26.597Z,4.7
2024-04-18T15:36:27.171Z,4.8
2024-04-18T15:39:27.815Z,4.9
2024-04-18T15:41:28.434Z,5.4
2024-04-18T15:44:29.002Z,5.6
2024-04-18T15:46:29.548Z,5.9
2024-04-18T15:49:30.158Z,6.3
2024-04-18T15:54:30.775Z,6.0
2024-04-18T15:57:31.500Z,5.7
2024-04-18T15:59:32.342Z,5.6
2024-04-18T16:01:32.897Z,5.6
2024-04-18T16:04:33.530Z,6.0
2024-04-18T16:07:34.153Z,6.4
2024-04-18T16:09:34.761Z,7.3
2024-04-18T16:12:35.572Z,7.6
2024-04-18T16:14:36.389Z,8.4
2024-04-18T16:17:37.001Z,9.0
2024-04-18T16:19:37.611Z,9.6
2024-04-18T16:22:38.187Z,9.6
2024-04-18T16:24:38.998Z,8.5
2024-04-18T16:27:39.731Z,7.6
2024-04-18T16:29:40.586Z,7.2
2024-04-18T16:34:41.137Z,6.8
2024-04-18T16:37:41.833Z,6.7
2024-04-18T16:39:42.720Z,6.4
2024-04-18T16:42:43.706Z,6.1
2024-04-18T16:45:44.352Z,5.7
2024-04-18T16:47:44.945Z,5.4
2024-04-18T16:50:45.591Z,4.8
2024-04-18T16:52:46.198Z,4.2
2024-04-18T16:55:46.776Z,3.4
2024-04-18T16:57:47.404Z,2.9
2024-04-18T17:00:48.191Z,2.3
2024-04-18T17:02:49.080Z,1.9
2024-04-18T17:05:49.976Z,1.8
2024-04-18T17:07:50.681Z,1.6
2024-04-18T17:10:51.250Z,1.5
2024-04-18T17:15:51.930Z,1.4
2024-04-18T17:18:52.603Z,1.5
2024-04-18T17:20:53.573Z,1.5
2024-04-18T17:23:54.119Z,1.5
2024-04-18T17:25:54.692Z,1.5
2024-04-18T17:28:55.276Z,1.5
2024-04-18T17:33:55.851Z,1.2
2024-04-18T17:35:56.425Z,1.1
2024-04-18T17:38:57.095Z,1.0
2024-04-18T17:40:58.332Z,0.9
2024-04-18T17:44:03.939Z,0.8
2024-04-18T17:46:07.187Z,0.7
2024-04-18T17:49:07.845Z,0.7
2024-04-18T17:51:08.660Z,0.6
2024-04-18T17:56:09.295Z,0.4
2024-04-18T17:59:09.836Z,0.3
2024-04-18T18:01:10.394Z,0.1
2024-04-18T18:04:11.236Z,0.1
2024-04-18T18:07:12.623Z,0.0
2024-04-18T18:09:13.236Z,-0.1
2024-04-18T18:11:13.931Z,-0.1
2024-04-18T18:14:15.122Z,-0.1
2024-04-18T18:17:15.677Z,-0.1
2024-04-18T18:19:16.373Z,-0.1
2024-04-18T18:22:17.536Z,-0.1
2024-04-18T18:24:18.139Z,-0.1
2024-04-18T18:27:18.870Z,0.0
2024-04-18T18:29:19.574Z,-0.1
2024-04-18T18:32:20.284Z,-0.1
2024-04-18T18:37:20.952Z,-0.1
2024-04-18T18:39:21.723Z,-0.1
2024-04-18T18:42:22.426Z,-0.3
2024-04-18T18:44:23.125Z,-0.3
2024-04-18T18:47:23.709Z,-0.3
2024-04-18T18:50:24.351Z,-0.3
2024-04-18T18:52:24.971Z,-0.3
2024-04-18T18:55:25.505Z,-0.3
2024-04-18T18:57:26.102Z,-0.4
2024-04-18T19:00:26.789Z,-0.4
2024-04-18T19:02:27.515Z,-0.5
2024-04-18T19:05:28.179Z,-0.5
2024-04-18T19:07:28.773Z,-0.4
2024-04-18T19:10:29.318Z,-0.4
2024-04-18T19:12:29.889Z,-0.4
2024-04-18T19:17:30.696Z,-0.5
2024-04-18T19:20:31.330Z,-0.7
2024-04-18T19:22:31.924Z,-0.8
2024-04-18T19:25:32.472Z,-0.9
2024-04-18T19:28:33.023Z,-0.9
2024-04-18T19:30:33.649Z,-1.1
2024-04-18T19:33:34.490Z,-1.1
2024-04-18T19:35:35.299Z,-1.1
2024-04-18T19:38:35.865Z,-1.2
2024-04-18T19:40:36.436Z,-1.2
2024-04-18T19:43:37.006Z,-1.2
2024-04-18T19:45:37.587Z,-1.3
2024-04-18T19:48:38.359Z,-1.3
2024-04-18T19:50:39.263Z,-1.4
2024-04-18T19:53:39.850Z,-1.5
2024-04-18T19:58:40.428Z,-1.4
2024-04-18T20:00:41.069Z,-1.5
2024-04-18T20:03:42.069Z,-1.5
2024-04-18T20:05:42.955Z,-1.4
2024-04-18T20:08:45.280Z,-1.5
2024-04-18T20:10:46.313Z,-1.5
2024-04-18T20:13:46.902Z,-1.5
2024-04-18T20:16:47.529Z,-1.6
2024-04-18T20:18:48.239Z,-1.7
2024-04-18T20:21:49.360Z,-1.7
2024-04-18T20:23:50.042Z,-1.7
2024-04-18T20:26:50.591Z,-1.8
2024-04-18T20:28:51.199Z,-1.8
2024-04-18T20:31:51.805Z,-1.9
2024-04-18T20:33:52.447Z,-1.9
2024-04-18T20:38:53.465Z,-1.9
2024-04-18T20:41:54.053Z,-2.0
2024-04-18T20:43:54.675Z,-1.9
2024-04-18T20:46:55.270Z,-2.0
2024-04-18T20:49:55.803Z,-2.1
2024-04-18T20:51:56.369Z,-2.2
2024-04-18T20:54:56.971Z,-2.2
2024-04-18T20:56:57.524Z,-2.3
2024-04-18T20:58:58.072Z,-2.3
2024-04-18T21:01:58.703Z,-2.3
2024-04-18T21:04:59.499Z,-2.1
2024-04-18T21:07:00.220Z,-2.0
2024-04-18T21:10:00.929Z,-1.9
2024-04-18T21:12:01.654Z,-1.9
2024-04-18T21:15:02.362Z,-1.9
2024-04-18T21:20:03.067Z,-1.7
2024-04-18T21:22:03.817Z,-1.7
2024-04-18T21:25:04.544Z,-1.6
2024-04-18T21:27:05.312Z,-1.5
2024-04-18T21:30:06.005Z,-1.4
2024-04-18T21:32:06.770Z,-1.4
2024-04-18T21:35:07.488Z,-1.3
2024-04-18T21:37:08.206Z,-1.3
2024-04-18T21:40:08.925Z,-1.0
2024-04-18T21:43:09.693Z,-0.8
2024-04-18T21:45:10.459Z,-0.7
2024-04-18T21:48:11.422Z,-0.6
2024-04-18T21:50:12.505Z,-0.6
2024-04-18T21:53:13.409Z,-0.6
2024-04-18T21:55:15.440Z,-0.6
2024-04-18T22:00:16.623Z,-0.7
2024-04-18T22:03:17.690Z,-0.6
2024-04-18T22:05:18.597Z,-0.7
2024-04-18T22:08:19.326Z,-0.7
2024-04-18T22:10:20.156Z,-0.7
2024-04-18T22:13:20.882Z,-0.8
2024-04-18T22:15:21.644Z,-0.8
2024-04-18T22:18:22.543Z,-0.7
2024-04-18T22:20:23.683Z,-0.8
2024-04-18T22:23:24.435Z,-0.7
2024-04-18T22:25:25.137Z,-0.7
2024-04-18T22:28:25.863Z,-0.7
2024-04-18T22:31:26.587Z,-0.7
2024-04-18T22:33:27.418Z,-0.6
2024-04-18T22:36:28.437Z,-0.6
2024-04-18T22:41:29.559Z,-0.6
2024-04-18T22:43:30.275Z,-0.6
2024-04-18T22:46:30.975Z,-0.5
2024-04-18T22:48:31.842Z,-0.5
2024-04-18T22:51:33.150Z,-0.5
2024-04-18T22:53:34.004Z,-0.5
2024-04-18T22:56:34.712Z,-0.5
2024-04-18T22:58:35.427Z,-0.5
2024-04-18T23:01:36.175Z,-0.5
2024-04-18T23:03:37.179Z,-0.5
2024-04-18T23:06:38.191Z,-0.4
2024-04-18T23:08:39.069Z,-0.4
2024-04-18T23:11:39.797Z,-0.4
2024-04-18T23:14:40.543Z,-0.5
2024-04-18T23:16:41.277Z,-0.5
2024-04-18T23:21:42.044Z,-0.5
2024-04-18T23:24:43.090Z,-0.5
2024-04-18T23:26:44.107Z,-0.5
2024-04-18T23:29:44.962Z,-0.5
2024-04-18T23:31:45.670Z,-0.5
2024-04-18T23:34:46.416Z,-0.4
2024-04-18T23:36:47.165Z,-0.4
2024-04-18T23:39:48.057Z,-0.3
2024-04-18T23:41:49.104Z,-0.3
2024-04-18T23:44:49.831Z,-0.3
2024-04-18T23:46:50.581Z,-0.2
2024-04-18T23:49:51.535Z,-0.2
2024-04-18T23:51:52.320Z,-0.2
2024-04-18T23:54:53.216Z,-0.3
2024-04-18T23:56:53.977Z,-0.2
